createdAt,value
2022-10-05T00:00:19.381Z,55.23
2022-10-05T00:02:47.573Z,55.65
2022-10-05T00:05:22.592Z,55.63
2022-10-05T00:07:50.392Z,55.28
2022-10-05T00:10:19.431Z,55.56
2022-10-05T00:12:47.705Z,55.68
2022-10-05T00:15:16.822Z,55.70
2022-10-05T00:17:47.914Z,56.04
2022-10-05T00:20:21.483Z,55.74
2022-10-05T00:22:49.641Z,55.94
2022-10-05T00:25:19.198Z,56.09
2022-10-05T00:27:47.681Z,55.67
2022-10-05T00:30:16.730Z,55.88
2022-10-05T00:32:47.084Z,56.06
2022-10-05T00:35:15.942Z,56.04
2022-10-05T00:37:43.643Z,56.01
2022-10-05T00:40:20.045Z,56.16
2022-10-05T00:42:51.333Z,56.22
2022-10-05T00:45:24.854Z,56.41
2022-10-05T00:47:57.887Z,56.31
2022-10-05T00:50:49.166Z,56.19
2022-10-05T00:53:24.484Z,56.14
2022-10-05T00:55:58.114Z,56.22
2022-10-05T00:58:30.772Z,55.92
2022-10-05T01:01:03.948Z,55.74
2022-10-05T01:03:36.073Z,55.86
2022-10-05T01:06:09.204Z,55.86
2022-10-05T01:08:42.523Z,55.66
2022-10-05T01:11:12.949Z,55.78
2022-10-05T01:13:48.328Z,55.95
2022-10-05T01:16:18.028Z,55.73
2022-10-05T01:18:51.509Z,55.38
2022-10-05T01:21:20.957Z,55.64
2022-10-05T01:24:17.941Z,55.43
2022-10-05T01:27:50.091Z,55.62
2022-10-05T01:30:21.152Z,55.55
2022-10-05T01:32:51.341Z,55.53
2022-10-05T01:35:35.396Z,55.60
2022-10-05T01:38:10.791Z,55.54
2022-10-05T01:40:41.057Z,55.74
2022-10-05T01:43:12.934Z,55.48
2022-10-05T01:45:49.303Z,55.64
2022-10-05T01:48:19.764Z,55.53
2022-10-05T01:50:52.140Z,55.53
2022-10-05T01:53:24.785Z,55.86
2022-10-05T01:55:56.024Z,56.03
2022-10-05T01:58:26.312Z,55.65
2022-10-05T02:01:01.465Z,55.75
2022-10-05T02:03:31.857Z,55.72
2022-10-05T02:06:00.727Z,55.75
2022-10-05T02:08:32.228Z,55.58
2022-10-05T02:14:50.864Z,56.30
2022-10-05T02:17:22.434Z,56.27
2022-10-05T02:19:51.556Z,56.04
2022-10-05T02:22:22.942Z,56.23
2022-10-05T02:24:54.269Z,56.34
2022-10-05T02:27:38.109Z,56.10
2022-10-05T02:30:11.677Z,56.08
2022-10-05T02:32:52.122Z,56.07
2022-10-05T02:35:20.776Z,56.23
2022-10-05T02:37:57.311Z,56.20
2022-10-05T02:40:30.179Z,56.16
2022-10-05T02:43:02.165Z,56.59
2022-10-05T02:45:36.725Z,56.25
2022-10-05T02:48:12.051Z,56.48
2022-10-05T02:50:44.662Z,56.53
2022-10-05T02:53:30.430Z,56.65
2022-10-05T02:56:16.788Z,56.60
2022-10-05T02:58:47.121Z,56.63
2022-10-05T03:01:18.238Z,56.65
2022-10-05T03:03:50.509Z,56.89
2022-10-05T03:06:21.097Z,56.99
2022-10-05T03:08:52.230Z,57.09
2022-10-05T03:11:23.960Z,56.87
2022-10-05T03:13:54.199Z,56.92
2022-10-05T03:16:31.245Z,56.89
2022-10-05T03:19:06.421Z,57.06
2022-10-05T03:21:47.896Z,57.16
2022-10-05T03:24:25.947Z,56.96
2022-10-05T03:26:55.815Z,56.87
2022-10-05T03:29:28.424Z,56.68
2022-10-05T03:31:59.552Z,56.78
2022-10-05T03:34:31.141Z,56.79
2022-10-05T03:37:03.178Z,56.80
2022-10-05T03:39:33.118Z,56.71
2022-10-05T03:42:05.209Z,56.77
2022-10-05T03:44:45.778Z,56.66
2022-10-05T03:47:30.514Z,56.30
2022-10-05T03:50:31.843Z,56.56
2022-10-05T03:53:01.967Z,56.63
2022-10-05T03:55:34.210Z,57.04
2022-10-05T03:58:07.765Z,57.18
2022-10-05T04:00:36.015Z,57.33
2022-10-05T04:03:06.751Z,57.32
2022-10-05T04:05:38.111Z,57.53
2022-10-05T04:08:07.417Z,57.34
2022-10-05T04:10:42.869Z,57.23
2022-10-05T04:13:13.412Z,57.28
2022-10-05T04:16:06.628Z,57.64
2022-10-05T04:18:35.947Z,57.69
2022-10-05T04:21:06.866Z,57.90
2022-10-05T04:23:45.785Z,57.35
2022-10-05T04:26:15.262Z,58.29
2022-10-05T04:28:47.415Z,58.18
2022-10-05T04:31:18.540Z,57.87
2022-10-05T04:33:48.247Z,58.53
2022-10-05T04:36:22.131Z,58.12
2022-10-05T04:38:55.867Z,57.60
2022-10-05T04:41:48.930Z,57.62
2022-10-05T04:44:28.113Z,57.92
2022-10-05T04:47:05.598Z,58.23
2022-10-05T04:49:54.924Z,58.07
2022-10-05T04:52:27.497Z,58.13
2022-10-05T04:55:05.897Z,58.36
2022-10-05T04:57:54.045Z,58.17
2022-10-05T05:00:24.867Z,58.15
2022-10-05T05:03:29.411Z,57.81
2022-10-05T05:06:17.183Z,58.14
2022-10-05T05:09:01.138Z,58.14
2022-10-05T05:11:30.386Z,58.16
2022-10-05T05:14:17.760Z,58.10
2022-10-05T05:16:46.163Z,58.11
2022-10-05T05:19:19.615Z,58.05
2022-10-05T05:21:51.343Z,58.20
2022-10-05T05:24:24.195Z,57.86
2022-10-05T05:27:02.512Z,57.84
2022-10-05T05:29:37.641Z,57.60
2022-10-05T05:32:09.700Z,57.46
2022-10-05T05:34:43.911Z,57.20
2022-10-05T05:37:15.635Z,57.29
2022-10-05T05:39:49.110Z,56.87
2022-10-05T05:42:23.850Z,57.43
2022-10-05T05:44:53.479Z,56.91
2022-10-05T05:47:22.689Z,57.06
2022-10-05T05:50:07.311Z,56.87
2022-10-05T05:52:40.570Z,57.05
2022-10-05T05:55:15.739Z,56.65
2022-10-05T05:57:47.844Z,56.81
2022-10-05T06:00:20.520Z,56.81
2022-10-05T06:02:52.230Z,56.20
2022-10-05T06:05:28.767Z,56.57
2022-10-05T06:07:57.059Z,56.65
2022-10-05T06:10:30.438Z,56.49
2022-10-05T06:13:01.580Z,56.55
2022-10-05T06:15:31.757Z,56.25
2022-10-05T06:18:00.717Z,56.18
2022-10-05T06:20:29.887Z,55.80
2022-10-05T06:25:51.029Z,55.66
2022-10-05T06:28:19.650Z,55.90
2022-10-05T06:30:52.688Z,55.82
2022-10-05T06:33:26.761Z,55.76
2022-10-05T06:36:01.613Z,55.33
2022-10-05T06:38:44.831Z,55.55
2022-10-05T06:41:16.766Z,55.56
2022-10-05T06:43:49.955Z,55.49
2022-10-05T06:46:27.166Z,55.52
2022-10-05T06:49:03.546Z,55.29
2022-10-05T06:51:36.665Z,55.11
2022-10-05T06:54:08.295Z,55.00
2022-10-05T06:56:40.869Z,54.73
2022-10-05T06:59:10.919Z,55.13
2022-10-05T07:01:46.073Z,54.68
2022-10-05T07:04:35.963Z,54.49
2022-10-05T07:07:05.999Z,54.56
2022-10-05T07:09:39.543Z,54.14
2022-10-05T07:12:23.892Z,54.21
2022-10-05T07:15:14.102Z,54.45
2022-10-05T07:17:46.024Z,54.25
2022-10-05T07:20:16.985Z,54.05
2022-10-05T07:23:14.960Z,53.74
2022-10-05T07:25:44.075Z,54.00
2022-10-05T07:28:15.063Z,53.90
2022-10-05T07:30:45.300Z,53.81
2022-10-05T07:33:14.437Z,53.56
2022-10-05T07:36:04.125Z,53.28
2022-10-05T07:38:33.742Z,53.66
2022-10-05T07:41:07.520Z,53.14
2022-10-05T07:44:02.333Z,53.10
2022-10-05T07:46:35.539Z,53.38
2022-10-05T07:49:04.686Z,53.16
2022-10-05T07:51:36.097Z,53.15
2022-10-05T07:54:20.062Z,52.63
2022-10-05T07:56:50.397Z,52.97
2022-10-05T07:59:24.830Z,53.05
2022-10-05T08:01:55.394Z,52.58
2022-10-05T08:04:25.217Z,52.37
2022-10-05T08:06:54.121Z,52.39
2022-10-05T08:09:30.347Z,52.59
2022-10-05T08:12:03.386Z,52.32
2022-10-05T08:14:34.784Z,52.03
2022-10-05T08:17:03.978Z,52.06
2022-10-05T08:19:34.993Z,52.14
2022-10-05T08:22:04.969Z,51.89
2022-10-05T08:24:39.852Z,51.78
2022-10-05T08:27:10.555Z,51.83
2022-10-05T08:29:42.220Z,52.17
2022-10-05T08:32:13.734Z,51.92
2022-10-05T08:34:46.727Z,51.51
2022-10-05T08:37:29.136Z,51.43
2022-10-05T08:40:04.121Z,51.23
2022-10-05T08:43:05.023Z,50.42
2022-10-05T08:46:19.374Z,50.30
2022-10-05T08:49:15.962Z,50.36
2022-10-05T08:52:04.881Z,50.02
2022-10-05T08:54:48.444Z,49.91
2022-10-05T08:57:41.801Z,49.88
2022-10-05T09:00:11.389Z,49.73
2022-10-05T09:03:07.991Z,49.89
2022-10-05T09:06:16.982Z,49.04
2022-10-05T09:08:58.684Z,49.53
2022-10-05T09:11:27.723Z,49.22
2022-10-05T09:14:29.498Z,48.99
2022-10-05T09:17:11.662Z,49.21
2022-10-05T09:20:17.856Z,48.56
2022-10-05T09:23:13.313Z,48.71
2022-10-05T09:25:55.188Z,48.57
2022-10-05T09:28:35.010Z,48.95
2022-10-05T09:31:18.930Z,48.52
2022-10-05T09:34:18.718Z,48.29
2022-10-05T09:37:23.078Z,47.86
2022-10-05T09:40:18.516Z,48.02
2022-10-05T09:43:05.240Z,48.14
2022-10-05T09:46:03.858Z,47.54
2022-10-05T09:48:48.585Z,47.58
2022-10-05T09:52:07.025Z,47.20
2022-10-05T09:55:03.040Z,47.23
2022-10-05T09:57:59.288Z,46.75
2022-10-05T10:00:31.834Z,47.25
2022-10-05T10:03:15.964Z,46.73
2022-10-05T10:06:05.083Z,46.78
2022-10-05T10:08:37.657Z,47.05
2022-10-05T10:11:42.373Z,46.00
2022-10-05T10:14:49.907Z,45.99
2022-10-05T10:17:30.450Z,46.05
2022-10-05T10:20:10.245Z,46.40
2022-10-05T10:23:12.529Z,45.79
2022-10-05T10:57:04.337Z,38.59
2022-10-05T10:59:57.558Z,37.95
2022-10-05T11:02:37.256Z,36.19
2022-10-05T11:05:09.465Z,34.79
2022-10-05T11:08:02.996Z,32.95
2022-10-05T11:10:52.550Z,32.61
2022-10-05T11:13:40.024Z,31.39
2022-10-05T11:16:32.231Z,31.08
2022-10-05T11:19:20.262Z,28.07
2022-10-05T11:21:55.415Z,26.44
2022-10-05T11:24:44.870Z,24.12
2022-10-05T11:27:45.727Z,23.37
2022-10-05T11:30:22.969Z,25.45
2022-10-05T11:33:14.482Z,23.31
2022-10-05T11:36:30.156Z,22.94
2022-10-05T11:39:18.177Z,23.77
2022-10-05T11:42:08.749Z,22.25
2022-10-05T11:45:13.213Z,21.04
2022-10-05T11:47:50.213Z,19.64
2022-10-05T11:50:20.627Z,18.79
2022-10-05T11:52:49.078Z,18.06
2022-10-05T11:55:22.798Z,18.07
2022-10-05T11:57:52.175Z,19.22
2022-10-05T12:00:21.119Z,19.39
2022-10-05T12:03:14.134Z,19.54
2022-10-05T12:05:47.593Z,20.81
2022-10-05T12:08:22.216Z,21.97
2022-10-05T12:10:53.820Z,23.12
2022-10-05T12:13:26.796Z,25.12
2022-10-05T12:15:55.932Z,27.32
2022-10-05T12:18:40.401Z,28.81
2022-10-05T12:21:12.134Z,30.25
2022-10-05T12:23:43.513Z,32.03
2022-10-05T12:26:12.769Z,32.37
2022-10-05T12:28:42.301Z,33.57
2022-10-05T12:31:24.069Z,34.21
2022-10-05T12:33:57.767Z,35.14
2022-10-05T12:36:46.202Z,35.62
2022-10-05T12:39:20.742Z,36.16
2022-10-05T12:41:51.778Z,36.35
2022-10-05T12:44:26.409Z,36.29
2022-10-05T12:46:57.621Z,36.77
2022-10-05T12:49:43.153Z,37.16
2022-10-05T12:52:14.827Z,37.12
2022-10-05T12:54:45.930Z,37.30
2022-10-05T12:57:16.159Z,37.68
2022-10-05T12:59:45.699Z,37.55
2022-10-05T13:02:19.762Z,37.68
2022-10-05T13:04:51.512Z,37.97
2022-10-05T13:08:07.274Z,37.86
2022-10-05T13:10:36.433Z,38.21
2022-10-05T13:13:12.268Z,38.30
2022-10-05T13:15:42.633Z,38.34
2022-10-05T13:18:18.214Z,38.78
2022-10-05T13:20:50.076Z,38.83
2022-10-05T13:23:20.877Z,39.10
2022-10-05T13:25:51.627Z,38.68
2022-10-05T13:28:22.428Z,39.22
2022-10-05T13:30:57.734Z,38.49
2022-10-05T13:33:29.701Z,38.72
2022-10-05T13:36:01.696Z,39.24
2022-10-05T13:38:36.609Z,39.75
2022-10-05T13:41:08.204Z,39.82
2022-10-05T13:43:44.846Z,40.29
2022-10-05T13:46:16.363Z,39.93
2022-10-05T13:48:53.536Z,40.39
2022-10-05T13:51:23.435Z,40.53
2022-10-05T13:53:55.992Z,40.33
2022-10-05T13:56:25.873Z,40.19
2022-10-05T13:58:56.955Z,40.29
2022-10-05T14:01:31.649Z,39.65
2022-10-05T14:04:07.071Z,39.87
2022-10-05T14:06:37.763Z,40.23
2022-10-05T14:09:05.463Z,40.41
2022-10-05T14:11:34.843Z,40.23
2022-10-05T14:14:05.319Z,40.29
2022-10-05T14:16:33.754Z,40.64
2022-10-05T14:19:18.845Z,41.14
2022-10-05T14:21:50.727Z,41.01
2022-10-05T14:24:32.269Z,40.95
2022-10-05T14:27:19.231Z,40.95
2022-10-05T14:29:49.085Z,41.24
2022-10-05T14:32:18.759Z,41.71
2022-10-05T14:34:47.269Z,41.58
2022-10-05T14:37:20.960Z,41.78
2022-10-05T14:39:51.862Z,41.71
2022-10-05T14:42:20.641Z,41.63
2022-10-05T14:44:59.838Z,41.90
2022-10-05T14:47:30.217Z,42.53
2022-10-05T14:50:16.154Z,42.35
2022-10-05T14:52:51.782Z,42.60
2022-10-05T14:55:45.258Z,42.75
2022-10-05T14:58:38.806Z,42.91
2022-10-05T15:01:13.616Z,43.27
2022-10-05T15:03:47.233Z,42.87
2022-10-05T15:06:19.956Z,42.88
2022-10-05T15:09:00.654Z,42.79
2022-10-05T15:11:34.399Z,43.15
2022-10-05T15:14:04.818Z,43.56
2022-10-05T15:16:33.293Z,43.45
2022-10-05T15:19:04.804Z,43.48
2022-10-05T15:21:40.523Z,43.80
2022-10-05T15:24:13.244Z,43.58
2022-10-05T15:26:47.425Z,43.98
2022-10-05T15:29:49.832Z,44.17
2022-10-05T15:32:25.287Z,43.96
2022-10-05T15:35:01.215Z,44.03
2022-10-05T15:37:34.095Z,43.62
2022-10-05T15:40:04.882Z,44.13
2022-10-05T15:42:35.021Z,44.28
2022-10-05T15:45:05.361Z,44.19
2022-10-05T15:47:43.900Z,44.49
2022-10-05T15:50:16.154Z,44.23
2022-10-05T15:52:45.700Z,44.63
2022-10-05T15:55:26.413Z,44.48
2022-10-05T15:57:59.331Z,44.72
2022-10-05T16:00:27.326Z,44.92
2022-10-05T16:02:59.304Z,45.24
2022-10-05T16:05:57.789Z,45.21
2022-10-05T16:08:54.139Z,44.97
2022-10-05T16:11:51.699Z,45.17
2022-10-05T16:14:39.429Z,45.49
2022-10-05T16:17:13.605Z,45.78
2022-10-05T16:19:46.123Z,45.52
2022-10-05T16:22:18.254Z,45.84
2022-10-05T16:24:55.622Z,45.86
2022-10-05T16:27:29.883Z,46.19
2022-10-05T16:30:00.216Z,46.33
2022-10-05T16:32:30.261Z,46.29
2022-10-05T16:35:03.760Z,46.25
2022-10-05T16:37:35.960Z,46.26
2022-10-05T16:40:04.577Z,46.41
2022-10-05T16:42:57.959Z,46.90
2022-10-05T16:45:31.068Z,46.99
2022-10-05T16:48:03.127Z,47.11
2022-10-05T16:50:34.787Z,46.88
2022-10-05T16:53:13.385Z,46.70
2022-10-05T16:55:43.124Z,47.20
2022-10-05T16:58:16.001Z,47.15
2022-10-05T17:00:51.954Z,47.03
2022-10-05T17:03:30.459Z,46.99
2022-10-05T17:06:09.816Z,47.22
2022-10-05T17:09:00.944Z,46.96
2022-10-05T17:11:34.441Z,47.16
2022-10-05T17:14:21.025Z,47.23
2022-10-05T17:16:55.964Z,47.54
2022-10-05T17:19:43.659Z,47.37
2022-10-05T17:22:13.582Z,47.22
2022-10-05T17:24:51.862Z,47.40
2022-10-05T17:27:22.877Z,47.73
2022-10-05T17:29:52.722Z,47.82
2022-10-05T17:32:34.276Z,48.01
2022-10-05T17:35:18.412Z,48.10
2022-10-05T17:38:15.169Z,48.03
2022-10-05T17:40:43.331Z,48.15
2022-10-05T17:43:25.301Z,48.20
2022-10-05T17:45:56.736Z,48.24
2022-10-05T17:48:38.131Z,48.13
2022-10-05T17:51:40.433Z,47.83
2022-10-05T17:54:37.127Z,47.34
2022-10-05T17:57:20.818Z,47.15
2022-10-05T17:59:58.186Z,47.07
2022-10-05T18:02:42.897Z,46.88
2022-10-05T18:05:29.002Z,47.01
2022-10-05T18:08:21.554Z,46.97
2022-10-05T18:11:08.323Z,46.87
2022-10-05T18:13:36.714Z,47.05
2022-10-05T18:16:04.758Z,46.91
2022-10-05T18:18:55.969Z,46.84
2022-10-05T18:21:35.889Z,47.02
2022-10-05T18:24:36.503Z,46.95
2022-10-05T18:27:31.932Z,46.91
2022-10-05T18:30:15.045Z,47.30
2022-10-05T18:33:21.107Z,47.04
2022-10-05T18:35:59.790Z,47.46
2022-10-05T18:38:35.738Z,47.10
2022-10-05T18:41:06.423Z,47.16
2022-10-05T18:43:37.143Z,47.12
2022-10-05T18:46:15.456Z,47.39
2022-10-05T18:48:48.352Z,47.32
2022-10-05T18:51:21.032Z,46.92
2022-10-05T18:54:00.371Z,47.17
2022-10-05T18:56:31.211Z,46.86
2022-10-05T18:59:06.343Z,47.23
2022-10-05T19:01:52.278Z,46.98
2022-10-05T19:04:24.778Z,47.05
2022-10-05T19:06:59.614Z,46.98
2022-10-05T19:09:39.704Z,47.00
2022-10-05T19:12:49.633Z,47.06
2022-10-05T19:15:44.218Z,47.24
2022-10-05T19:18:33.301Z,46.90
2022-10-05T19:21:05.443Z,47.12
2022-10-05T19:23:44.663Z,47.30
2022-10-05T19:26:15.611Z,46.79
2022-10-05T19:28:50.388Z,46.75
2022-10-05T19:31:27.985Z,46.52
2022-10-05T19:34:03.003Z,46.86
2022-10-05T19:36:36.569Z,47.03
2022-10-05T19:39:09.024Z,47.18
2022-10-05T19:41:52.098Z,47.05
2022-10-05T19:44:25.153Z,47.06
2022-10-05T19:47:00.588Z,47.04
2022-10-05T19:49:45.259Z,47.13
2022-10-05T19:55:13.034Z,47.10
2022-10-05T22:13:26.777Z,50.20
2022-10-05T22:45:18.096Z,52.11
2022-10-05T22:48:19.887Z,52.64
2022-10-05T22:51:41.045Z,52.52
2022-10-05T22:54:57.684Z,52.48
2022-10-05T22:57:38.547Z,53.01
2022-10-05T23:00:07.920Z,53.10
2022-10-05T23:02:37.850Z,53.69
2022-10-05T23:05:06.820Z,53.82
2022-10-05T23:11:20.855Z,54.23
2022-10-05T23:17:39.857Z,54.79
2022-10-05T23:21:24.527Z,54.63
2022-10-05T23:27:55.119Z,55.35
2022-10-05T23:31:08.115Z,55.30
2022-10-05T23:34:03.885Z,55.96
2022-10-05T23:41:29.047Z,55.16
2022-10-05T23:44:38.093Z,54.79
2022-10-05T23:54:20.070Z,54.94
